createdAt,value
2018-11-12T00:00:33.562Z,10.13
2018-11-12T00:03:02.438Z,12.20
2018-11-12T00:05:30.878Z,12.00
2018-11-12T00:07:59.334Z,12.07
2018-11-12T00:10:27.825Z,12.03
2018-11-12T00:12:56.397Z,11.50
2018-11-12T00:15:24.829Z,11.97
2018-11-12T00:17:53.293Z,12.40
2018-11-12T00:20:21.888Z,11.60
2018-11-12T00:22:50.354Z,10.97
2018-11-12T00:25:18.809Z,11.50
2018-11-12T00:27:47.326Z,11.57
2018-11-12T00:30:19.691Z,11.80
2018-11-12T00:32:48.917Z,11.90
2018-11-12T00:35:17.415Z,10.80
2018-11-12T00:51:22.608Z,10.70
2018-11-12T00:53:51.054Z,10.63
2018-11-12T00:56:19.521Z,9.63
2018-11-12T00:58:48.093Z,10.83
2018-11-12T01:01:16.539Z,10.83
2018-11-12T01:03:45.007Z,10.87
2018-11-12T01:06:13.485Z,11.37
2018-11-12T01:08:42.093Z,11.33
2018-11-12T01:11:10.850Z,10.67
2018-11-12T01:13:39.313Z,11.47
2018-11-12T01:16:08.021Z,11.57
2018-11-12T01:18:36.443Z,11.10
2018-11-12T01:21:05.269Z,11.60
2018-11-12T01:23:33.728Z,11.70
2018-11-12T01:26:02.196Z,11.27
2018-11-12T01:28:30.641Z,10.73
2018-11-12T01:31:04.585Z,11.37
2018-11-12T01:33:34.369Z,11.37
2018-11-12T01:36:02.835Z,11.33
2018-11-12T01:38:31.622Z,10.40
2018-11-12T01:41:00.088Z,10.60
2018-11-12T01:43:28.534Z,10.03
2018-11-12T01:45:57.029Z,9.67
2018-11-12T01:48:25.452Z,9.20
2018-11-12T01:50:53.908Z,10.63
2018-11-12T01:53:22.452Z,11.13
2018-11-12T01:55:50.936Z,10.60
2018-11-12T01:58:19.360Z,12.70
2018-11-12T02:00:47.809Z,12.93
2018-11-12T02:03:16.253Z,13.33
2018-11-12T02:05:44.705Z,13.73
2018-11-12T02:08:13.183Z,13.93
2018-11-12T02:10:41.631Z,14.47
2018-11-12T02:13:10.121Z,13.73
2018-11-12T02:15:38.574Z,14.20
2018-11-12T02:18:07.046Z,14.77
2018-11-12T02:20:35.494Z,13.80
2018-11-12T02:23:03.966Z,14.03
2018-11-12T02:25:32.425Z,14.73
2018-11-12T02:28:00.888Z,13.77
2018-11-12T02:30:48.103Z,14.00
2018-11-12T02:33:17.508Z,15.33
2018-11-12T02:35:45.936Z,16.43
2018-11-12T02:38:14.518Z,15.77
2018-11-12T02:40:42.994Z,16.00
2018-11-12T02:43:11.432Z,15.90
2018-11-12T02:45:39.881Z,17.90
2018-11-12T02:48:08.327Z,16.73
2018-11-12T02:50:36.800Z,16.73
2018-11-12T02:53:05.287Z,16.20
2018-11-12T02:55:33.765Z,16.43
2018-11-12T02:58:02.212Z,16.77
2018-11-12T03:00:30.693Z,17.60
2018-11-12T03:02:59.174Z,18.83
2018-11-12T03:05:27.645Z,18.00
2018-11-12T03:07:56.121Z,17.90
2018-11-12T03:10:25.380Z,19.03
2018-11-12T03:12:53.843Z,20.47
2018-11-12T03:15:22.660Z,18.93
2018-11-12T03:17:51.841Z,18.83
2018-11-12T03:20:21.689Z,21.73
2018-11-12T03:22:50.149Z,19.73
2018-11-12T03:25:19.845Z,19.47
2018-11-12T03:27:48.954Z,20.13
2018-11-12T03:30:18.706Z,19.47
2018-11-12T03:32:47.977Z,20.63
2018-11-12T03:35:16.644Z,20.97
2018-11-12T03:37:46.319Z,21.80
2018-11-12T03:40:16.803Z,21.97
2018-11-12T03:42:45.932Z,21.07
2018-11-12T03:45:15.524Z,21.53
2018-11-12T03:47:43.964Z,22.13
2018-11-12T03:50:15.253Z,22.30
2018-11-12T03:52:43.878Z,21.77
2018-11-12T03:55:13.506Z,21.77
2018-11-12T03:57:42.085Z,21.07
2018-11-12T04:00:14.764Z,20.47
2018-11-12T04:02:43.369Z,22.03
2018-11-12T04:05:11.957Z,22.17
2018-11-12T04:07:41.112Z,22.70
2018-11-12T04:10:11.444Z,22.40
2018-11-12T04:12:39.895Z,21.93
2018-11-12T04:15:10.986Z,22.40
2018-11-12T04:17:39.429Z,22.33
2018-11-12T04:20:09.396Z,22.60
2018-11-12T04:22:38.188Z,20.40
2018-11-12T04:25:07.974Z,21.40
2018-11-12T04:27:36.476Z,21.30
2018-11-12T04:30:07.885Z,21.63
2018-11-12T04:32:36.371Z,21.23
2018-11-12T04:35:04.866Z,21.30
2018-11-12T04:37:33.339Z,19.93
2018-11-12T04:40:01.801Z,21.73
2018-11-12T04:42:30.313Z,21.53
2018-11-12T04:44:58.793Z,20.07
2018-11-12T04:47:27.298Z,19.63
2018-11-12T04:49:56.357Z,20.63
2018-11-12T04:52:25.034Z,19.70
2018-11-12T04:54:53.720Z,20.67
2018-11-12T04:57:22.179Z,20.40
2018-11-12T04:59:50.669Z,20.40
2018-11-12T05:02:19.112Z,20.43
2018-11-12T05:04:47.620Z,20.77
2018-11-12T05:07:16.177Z,19.83
2018-11-12T05:09:44.591Z,19.03
2018-11-12T05:12:13.034Z,19.47
2018-11-12T05:14:41.536Z,20.40
2018-11-12T05:17:09.971Z,20.23
2018-11-12T05:19:38.396Z,20.30
2018-11-12T05:22:06.851Z,20.47
2018-11-12T05:24:35.319Z,21.17
2018-11-12T05:27:03.776Z,20.33
2018-11-12T05:29:32.220Z,20.87
2018-11-12T05:32:00.671Z,20.60
2018-11-12T05:34:29.125Z,21.67
2018-11-12T05:36:57.670Z,20.77
2018-11-12T05:39:26.153Z,20.63
2018-11-12T05:41:54.628Z,20.97
2018-11-12T05:44:23.064Z,20.93
2018-11-12T05:46:51.534Z,21.83
2018-11-12T05:49:19.981Z,20.20
2018-11-12T05:51:48.697Z,20.30
2018-11-12T05:54:17.160Z,21.30
2018-11-12T05:56:45.616Z,20.37
2018-11-12T05:59:14.076Z,20.90
2018-11-12T06:01:42.524Z,21.57
2018-11-12T06:04:10.959Z,20.97
2018-11-12T06:06:39.427Z,20.40
2018-11-12T06:25:53.919Z,21.93
2018-11-12T06:28:22.373Z,22.63
2018-11-12T06:30:50.853Z,23.30
2018-11-12T06:33:19.287Z,22.40
2018-11-12T06:35:47.743Z,22.80
2018-11-12T06:38:16.240Z,23.23
2018-11-12T06:40:44.840Z,23.10
2018-11-12T06:43:13.351Z,22.57
2018-11-12T06:45:41.792Z,22.20
2018-11-12T06:48:10.265Z,22.30
2018-11-12T06:50:38.726Z,22.17
2018-11-12T06:53:07.273Z,22.37
2018-11-12T06:55:35.681Z,21.53
2018-11-12T06:58:04.174Z,23.60
2018-11-12T07:00:34.003Z,21.77
2018-11-12T07:03:02.508Z,21.53
2018-11-12T07:05:31.331Z,31.37
2018-11-12T07:07:59.774Z,24.33
2018-11-12T07:10:29.253Z,22.60
2018-11-12T07:12:58.554Z,21.83
2018-11-12T07:15:28.064Z,21.93
2018-11-12T07:17:56.762Z,23.07
2018-11-12T07:20:26.466Z,21.00
2018-11-12T07:22:55.032Z,22.17
2018-11-12T07:55:36.763Z,21.73
2018-11-12T07:58:05.453Z,21.70
2018-11-12T08:00:34.667Z,23.50
2018-11-12T08:03:07.465Z,24.13
2018-11-12T08:05:36.515Z,21.03
2018-11-12T08:08:05.237Z,22.10
2018-11-12T08:10:33.723Z,22.47
2018-11-12T08:13:02.201Z,20.90
2018-11-12T08:15:30.726Z,20.60
2018-11-12T08:17:59.210Z,18.57
2018-11-12T08:20:27.892Z,17.17
2018-11-12T08:22:56.434Z,16.27
2018-11-12T08:25:24.881Z,17.23
2018-11-12T08:27:53.355Z,16.07
2018-11-12T08:30:23.213Z,17.43
2018-11-12T08:32:53.053Z,15.03
2018-11-12T08:35:21.429Z,18.80
2018-11-12T08:37:50.536Z,15.47
2018-11-12T08:40:20.252Z,17.77
2018-11-12T08:42:48.800Z,19.33
2018-11-12T08:45:17.365Z,16.07
2018-11-12T08:47:47.405Z,19.63
2018-11-12T08:50:17.660Z,15.43
2018-11-12T08:52:47.138Z,15.93
2018-11-12T08:55:17.259Z,14.60
2018-11-12T08:57:49.019Z,18.00
2018-11-12T09:00:18.314Z,14.17
2018-11-12T09:02:46.859Z,15.17
2018-11-12T09:05:16.409Z,14.57
2018-11-12T09:07:46.308Z,15.27
2018-11-12T09:10:17.469Z,12.33
2018-11-12T09:12:46.169Z,12.80
2018-11-12T09:15:14.932Z,12.07
2018-11-12T09:17:44.456Z,10.97
2018-11-12T09:20:15.580Z,10.50
2018-11-12T09:22:44.105Z,11.90
2018-11-12T09:25:16.040Z,11.00
2018-11-12T09:27:44.830Z,9.87
2018-11-12T09:30:15.464Z,9.83
2018-11-12T09:32:44.302Z,9.60
2018-11-12T09:35:15.741Z,9.60
2018-11-12T09:37:45.599Z,9.40
2018-11-12T09:40:17.609Z,9.60
2018-11-12T09:42:46.469Z,8.87
2018-11-12T09:45:14.936Z,9.60
2018-11-12T09:47:43.914Z,9.73
2018-11-12T09:50:41.360Z,9.90
2018-11-12T09:53:09.804Z,9.40
2018-11-12T09:55:38.329Z,9.43
2018-11-12T09:58:07.720Z,9.10
2018-11-12T10:00:36.759Z,9.23
2018-11-12T10:03:06.061Z,9.23
2018-11-12T10:05:35.221Z,7.97
2018-11-12T10:08:09.149Z,8.03
2018-11-12T10:10:47.623Z,8.10
2018-11-12T10:13:21.411Z,6.80
2018-11-12T10:15:50.273Z,7.63
2018-11-12T10:18:16.069Z,5.70
2018-11-12T10:20:44.548Z,5.30
2018-11-12T10:23:12.985Z,4.77
2018-11-12T10:25:41.437Z,3.83
2018-11-12T10:28:09.840Z,3.53
2018-11-12T10:30:38.266Z,3.47
2018-11-12T10:33:06.947Z,3.80
2018-11-12T10:35:35.369Z,4.30
2018-11-12T10:38:04.053Z,4.17
2018-11-12T10:40:32.584Z,4.50
2018-11-12T10:43:00.990Z,4.50
2018-11-12T10:45:29.424Z,4.90
2018-11-12T10:47:57.903Z,4.70
2018-11-12T10:50:26.354Z,5.23
2018-11-12T10:52:54.783Z,4.60
2018-11-12T10:55:24.567Z,4.10
2018-11-12T10:57:53.407Z,4.87
2018-11-12T11:01:27.218Z,4.30
2018-11-12T11:04:01.130Z,4.00
2018-11-12T11:06:29.593Z,5.10
2018-11-12T11:08:58.038Z,4.10
2018-11-12T11:11:26.553Z,4.43
2018-11-12T11:13:55.091Z,4.13
2018-11-12T11:16:23.514Z,4.70
2018-11-12T11:18:51.952Z,5.10
2018-11-12T11:21:20.459Z,4.93
2018-11-12T11:23:48.878Z,5.40
2018-11-12T11:26:17.339Z,5.00
2018-11-12T11:28:45.851Z,5.20
2018-11-12T11:31:14.288Z,5.00
2018-11-12T11:33:42.980Z,4.67
2018-11-12T11:36:11.661Z,4.90
2018-11-12T11:38:40.112Z,5.00
2018-11-12T11:41:08.555Z,5.20
2018-11-12T11:43:37.031Z,5.47
2018-11-12T11:46:05.670Z,4.90
2018-11-12T11:48:34.267Z,5.47
2018-11-12T11:51:02.713Z,5.90
2018-11-12T11:53:31.174Z,5.93
2018-11-12T11:55:59.686Z,5.90
2018-11-12T11:58:28.121Z,6.93
2018-11-12T12:00:56.681Z,6.63
2018-11-12T12:03:25.091Z,7.03
2018-11-12T12:05:53.556Z,6.80
2018-11-12T12:08:22.005Z,7.23
2018-11-12T12:10:50.456Z,6.87
2018-11-12T12:13:18.931Z,6.33
2018-11-12T12:15:47.504Z,5.77
2018-11-12T12:18:16.090Z,7.07
2018-11-12T12:20:44.580Z,6.17
2018-11-12T12:23:13.073Z,5.53
2018-11-12T12:25:41.597Z,5.10
2018-11-12T12:28:10.195Z,5.60
2018-11-12T12:30:38.635Z,5.37
2018-11-12T12:33:07.074Z,5.47
2018-11-12T12:35:35.557Z,5.23
2018-11-12T12:38:04.305Z,5.37
2018-11-12T12:40:32.739Z,5.30
2018-11-12T12:43:01.197Z,5.23
2018-11-12T12:45:29.760Z,4.67
2018-11-12T12:47:58.737Z,4.13
2018-11-12T12:50:27.164Z,4.10
2018-11-12T12:52:55.655Z,4.23
2018-11-12T12:55:24.163Z,3.90
2018-11-12T12:57:52.641Z,3.93
2018-11-12T13:00:22.389Z,4.20
2018-11-12T13:02:50.829Z,4.00
2018-11-12T13:05:19.292Z,4.13
2018-11-12T13:07:47.775Z,4.60
2018-11-12T13:10:17.684Z,5.20
2018-11-12T13:12:48.056Z,5.10
2018-11-12T13:15:17.697Z,4.27
2018-11-12T13:17:47.086Z,4.87
2018-11-12T13:20:16.919Z,4.00
2018-11-12T13:22:46.140Z,3.57
2018-11-12T13:25:14.872Z,3.13
2018-11-12T13:27:43.721Z,3.40
2018-11-12T13:30:15.954Z,3.77
2018-11-12T13:32:45.038Z,3.40
2018-11-12T13:35:14.844Z,3.57
2018-11-12T13:37:43.312Z,3.77
2018-11-12T13:40:14.394Z,3.40
2018-11-12T13:42:44.482Z,2.87
2018-11-12T13:45:12.921Z,3.00
2018-11-12T13:47:41.365Z,3.37
2018-11-12T13:50:13.521Z,2.43
2018-11-12T13:52:41.972Z,2.73
2018-11-12T13:55:11.893Z,3.13
2018-11-12T13:57:40.359Z,2.90
2018-11-12T14:00:10.521Z,3.10
2018-11-12T14:02:39.144Z,3.10
2018-11-12T14:05:09.350Z,3.10
2018-11-12T14:07:37.788Z,3.20
2018-11-12T14:10:07.822Z,3.80
2018-11-12T14:12:36.712Z,2.93
2018-11-12T14:15:06.589Z,2.90
2018-11-12T14:17:35.042Z,3.50
2018-11-12T14:20:03.582Z,3.30
2018-11-12T14:22:32.040Z,3.13
2018-11-12T14:25:00.519Z,3.50
2018-11-12T14:27:29.024Z,3.97
2018-11-12T14:29:57.520Z,3.60
2018-11-12T14:32:26.001Z,3.57
2018-11-12T14:34:54.459Z,4.03
2018-11-12T14:37:22.921Z,4.20
2018-11-12T14:39:51.635Z,4.57
2018-11-12T14:42:20.082Z,4.60
2018-11-12T14:44:48.542Z,3.87
2018-11-12T14:47:17.073Z,4.40
2018-11-12T14:49:45.658Z,4.63
2018-11-12T14:52:14.552Z,4.93
2018-11-12T14:54:43.021Z,4.33
2018-11-12T14:57:11.477Z,4.90
2018-11-12T14:59:40.092Z,4.40
2018-11-12T15:02:08.551Z,4.50
2018-11-12T15:04:37.012Z,4.50
2018-11-12T15:07:06.029Z,5.00
2018-11-12T15:09:34.499Z,4.97
2018-11-12T15:12:02.965Z,5.20
2018-11-12T15:14:31.447Z,5.30
2018-11-12T15:16:59.885Z,6.77
2018-11-12T15:19:28.665Z,5.87
2018-11-12T15:21:57.141Z,6.17
2018-11-12T15:24:25.616Z,6.40
2018-11-12T15:26:54.060Z,6.47
2018-11-12T15:29:22.565Z,6.90
2018-11-12T15:31:50.930Z,7.03
2018-11-12T15:34:19.473Z,7.30
2018-11-12T15:36:48.072Z,7.33
2018-11-12T15:39:16.532Z,7.83
2018-11-12T15:41:45.000Z,7.63
2018-11-12T15:44:13.553Z,7.73
2018-11-12T15:46:42.026Z,8.10
2018-11-12T15:49:10.465Z,7.97
2018-11-12T15:55:00.753Z,7.87
2018-11-12T15:57:29.307Z,7.43
2018-11-12T15:59:57.691Z,7.43
2018-11-12T16:02:34.218Z,8.07
2018-11-12T16:05:02.864Z,7.80
2018-11-12T16:07:31.538Z,6.33
2018-11-12T16:10:00.025Z,7.27
2018-11-12T16:12:28.555Z,6.97
2018-11-12T16:14:57.091Z,6.57
2018-11-12T16:17:25.968Z,7.07
2018-11-12T16:19:54.536Z,7.13
2018-11-12T16:22:23.006Z,7.53
2018-11-12T16:28:20.448Z,7.50
2018-11-12T16:30:48.943Z,7.70
2018-11-12T16:33:17.380Z,8.10
2018-11-12T16:35:45.969Z,8.10
2018-11-12T16:38:14.428Z,7.93
2018-11-12T16:40:42.916Z,8.03
2018-11-12T16:43:12.537Z,8.07
2018-11-12T16:45:40.999Z,9.00
2018-11-12T16:48:09.549Z,9.10
2018-11-12T16:50:38.033Z,10.55
2018-11-12T16:53:07.819Z,10.37
2018-11-12T16:58:57.845Z,10.47
2018-11-12T17:01:26.372Z,10.43
2018-11-12T17:03:55.809Z,11.83
2018-11-12T17:06:24.325Z,12.00
2018-11-12T17:08:52.771Z,11.60
2018-11-12T17:11:23.257Z,53.60
2018-11-12T17:13:53.321Z,14.77
2018-11-12T17:16:21.784Z,12.77
2018-11-12T17:18:50.345Z,12.60
2018-11-12T17:21:19.851Z,13.97
2018-11-12T17:23:49.082Z,14.20
2018-11-12T17:26:17.544Z,12.97
2018-11-12T17:28:46.009Z,13.50
2018-11-12T17:31:14.513Z,13.30
2018-11-12T17:33:42.971Z,13.33
2018-11-12T17:36:11.440Z,15.00
2018-11-12T17:38:39.973Z,13.77
2018-11-12T17:41:08.625Z,13.73
2018-11-12T17:43:37.076Z,14.43
2018-11-12T17:46:18.486Z,12.93
2018-11-12T17:48:54.142Z,15.47
2018-11-12T17:51:22.669Z,13.67
2018-11-12T17:53:51.288Z,13.60
2018-11-12T17:56:23.158Z,13.33
2018-11-12T17:58:51.649Z,13.93
2018-11-12T18:01:20.162Z,14.07
2018-11-12T18:03:48.659Z,16.10
2018-11-12T18:06:25.669Z,14.57
2018-11-12T18:08:54.172Z,15.73
2018-11-12T18:11:22.695Z,15.27
2018-11-12T18:13:51.304Z,13.93
2018-11-12T18:16:19.777Z,14.93
2018-11-12T18:18:48.295Z,15.07
2018-11-12T18:21:18.811Z,15.87
2018-11-12T18:23:47.474Z,14.90
2018-11-12T18:26:16.108Z,15.10
2018-11-12T18:28:44.577Z,15.27
2018-11-12T18:31:13.255Z,15.53
2018-11-12T18:33:41.613Z,15.10
2018-11-12T18:36:10.148Z,13.63
2018-11-12T18:38:38.651Z,14.87
2018-11-12T18:41:07.265Z,13.80
2018-11-12T18:56:41.814Z,13.27
2018-11-12T18:59:10.308Z,13.60
2018-11-12T19:01:42.529Z,12.90
2018-11-12T19:04:11.068Z,12.33
2018-11-12T19:06:39.578Z,12.73
2018-11-12T19:09:09.381Z,12.53
2018-11-12T19:11:46.628Z,12.47
2018-11-12T19:14:16.808Z,13.27
2018-11-12T19:16:48.853Z,12.43
2018-11-12T19:19:17.313Z,12.10
2018-11-12T19:21:45.876Z,13.93
2018-11-12T19:24:14.357Z,14.97
2018-11-12T19:26:42.914Z,14.67
2018-11-12T19:29:11.577Z,13.53
2018-11-12T19:31:40.032Z,15.03
2018-11-12T19:34:09.936Z,12.10
2018-11-12T19:36:38.482Z,11.77
2018-11-12T19:39:14.789Z,11.70
2018-11-12T19:41:43.288Z,11.37
2018-11-12T19:44:11.889Z,11.80
2018-11-12T19:46:40.382Z,11.47
2018-11-12T19:49:08.898Z,12.20
2018-11-12T19:51:37.472Z,10.93
2018-11-12T19:54:06.359Z,10.93
2018-11-12T19:56:34.995Z,11.17
2018-11-12T19:59:03.568Z,10.87
2018-11-12T20:01:32.099Z,11.90
2018-11-12T20:04:02.176Z,11.90
2018-11-12T20:06:30.650Z,10.33
2018-11-12T20:08:59.121Z,9.67
2018-11-12T20:11:27.653Z,9.50
2018-11-12T20:13:56.358Z,9.70
2018-11-12T20:16:24.928Z,10.47
2018-11-12T20:18:53.429Z,8.73
2018-11-12T20:21:21.969Z,10.53
2018-11-12T20:23:50.694Z,10.00
2018-11-12T20:26:19.221Z,10.57
2018-11-12T20:28:47.693Z,9.13
2018-11-12T20:31:16.779Z,9.90
2018-11-12T20:33:45.250Z,10.30
2018-11-12T20:36:14.114Z,9.60
2018-11-12T20:38:42.644Z,9.37
2018-11-12T20:41:11.074Z,9.40
2018-11-12T20:43:39.531Z,9.50
2018-11-12T20:46:08.049Z,8.33
2018-11-12T20:48:36.536Z,8.90
2018-11-12T20:51:05.621Z,10.07
2018-11-12T20:53:34.101Z,11.50
2018-11-12T20:56:02.599Z,9.67
2018-11-12T20:58:31.994Z,9.07
2018-11-12T21:01:00.494Z,11.17
2018-11-12T21:03:29.001Z,11.55
2018-11-12T21:05:57.522Z,10.57
2018-11-12T21:08:26.041Z,9.83
2018-11-12T21:10:54.508Z,10.47
2018-11-12T21:13:22.955Z,10.27
2018-11-12T21:15:51.435Z,10.53
2018-11-12T21:18:19.941Z,10.83
2018-11-12T21:20:48.405Z,10.50
2018-11-12T21:23:16.929Z,11.00
2018-11-12T21:25:45.391Z,9.77
2018-11-12T21:28:13.882Z,10.63
2018-11-12T21:30:42.376Z,11.10
2018-11-12T21:33:10.834Z,10.97
2018-11-12T21:35:39.544Z,12.10
2018-11-12T21:38:08.100Z,10.63
2018-11-12T21:40:40.478Z,10.10
2018-11-12T21:43:08.969Z,10.23
2018-11-12T21:45:37.403Z,9.20
2018-11-12T21:48:05.929Z,10.73
2018-11-12T21:50:34.420Z,9.80
2018-11-12T21:53:02.876Z,10.77
2018-11-12T21:55:31.560Z,9.60
2018-11-12T21:58:00.086Z,10.37
2018-11-12T22:00:32.507Z,10.33
2018-11-12T22:03:02.252Z,10.30
2018-11-12T22:05:31.810Z,11.03
2018-11-12T22:08:00.647Z,10.67
2018-11-12T22:10:29.136Z,10.23
2018-11-12T22:12:57.686Z,9.97
2018-11-12T22:15:26.172Z,9.63
2018-11-12T22:17:54.681Z,9.63
2018-11-12T22:20:24.675Z,9.70
2018-11-12T22:22:53.163Z,9.30
2018-11-12T22:25:22.637Z,8.60
2018-11-12T22:27:51.848Z,8.93
2018-11-12T22:30:24.722Z,8.80
2018-11-12T22:32:54.009Z,9.73
2018-11-12T22:35:22.682Z,8.90
2018-11-12T22:37:51.412Z,8.73
2018-11-12T22:40:20.581Z,8.80
2018-11-12T22:42:49.968Z,8.90
2018-11-12T22:45:19.876Z,9.10
2018-11-12T22:47:48.877Z,8.57
2018-11-12T22:50:17.334Z,8.17
2018-11-12T22:52:46.133Z,8.93
2018-11-12T22:55:15.861Z,9.00
2018-11-12T22:57:44.322Z,8.80
2018-11-12T23:00:19.419Z,8.20
2018-11-12T23:02:48.563Z,8.97
2018-11-12T23:05:17.533Z,9.00
2018-11-12T23:07:46.846Z,9.33
2018-11-12T23:10:15.937Z,8.77
2018-11-12T23:12:44.405Z,8.77
2018-11-12T23:15:13.295Z,8.77
2018-11-12T23:17:41.866Z,8.97
2018-11-12T23:20:13.505Z,9.60
2018-11-12T23:22:42.862Z,8.80
2018-11-12T23:25:11.785Z,8.73
2018-11-12T23:27:41.277Z,9.20
2018-11-12T23:30:11.512Z,9.70
2018-11-12T23:32:40.410Z,8.83
2018-11-12T23:35:12.025Z,9.00
2018-11-12T23:37:41.124Z,9.10
2018-11-12T23:40:10.317Z,10.20
2018-11-12T23:42:38.883Z,10.37
2018-11-12T23:45:07.953Z,9.73
2018-11-12T23:47:37.113Z,9.73
2018-11-12T23:50:08.106Z,9.63
2018-11-12T23:52:36.590Z,10.47
2018-11-12T23:55:05.386Z,10.17
2018-11-12T23:57:33.870Z,9.97
